sensor_id;sensor_type;location;lat;lon;timestamp;pressure;altitude;pressure_sealevel;temperature;humidity
53522;BME280;39398;48.382;9.802;2023-03-25T00:00:23;93240.44;;;6.44;100.00
53522;BME280;39398;48.382;9.802;2023-03-25T00:05:26;93240.91;;;6.33;100.00
53522;BME280;39398;48.382;9.802;2023-03-25T00:10:27;93220.66;;;6.42;100.00
53522;BME280;39398;48.382;9.802;2023-03-25T00:15:29;93214.44;;;6.13;100.00
53522;BME280;39398;48.382;9.802;2023-03-25T00:20:31;93223.84;;;6.08;100.00
53522;BME280;39398;48.382;9.802;2023-03-25T00:25:33;93223.56;;;6.17;100.00
53522;BME280;39398;48.382;9.802;2023-03-25T00:30:36;93221.94;;;6.16;100.00
53522;BME280;39398;48.382;9.802;2023-03-25T00:35:39;93226.53;;;5.99;100.00
53522;BME280;39398;48.382;9.802;2023-03-25T00:40:41;93227.53;;;5.98;100.00
53522;BME280;39398;48.382;9.802;2023-03-25T00:45:42;93232.38;;;5.87;100.00
53522;BME280;39398;48.382;9.802;2023-03-25T00:50:45;93232.50;;;6.23;100.00
53522;BME280;39398;48.382;9.802;2023-03-25T00:55:47;93247.22;;;6.24;100.00
53522;BME280;39398;48.382;9.802;2023-03-25T01:00:48;93262.31;;;6.37;100.00
53522;BME280;39398;48.382;9.802;2023-03-25T01:05:51;93273.88;;;6.27;100.00
53522;BME280;39398;48.382;9.802;2023-03-25T01:10:53;93266.50;;;6.16;100.00
53522;BME280;39398;48.382;9.802;2023-03-25T01:15:54;93257.00;;;6.15;100.00
53522;BME280;39398;48.382;9.802;2023-03-25T01:20:57;93254.09;;;5.95;100.00
53522;BME280;39398;48.382;9.802;2023-03-25T01:25:59;93247.41;;;5.93;100.00
53522;BME280;39398;48.382;9.802;2023-03-25T01:31:01;93249.50;;;6.12;100.00
53522;BME280;39398;48.382;9.802;2023-03-25T01:36:06;93246.69;;;6.14;100.00
53522;BME280;39398;48.382;9.802;2023-03-25T01:41:09;93245.53;;;6.16;100.00
53522;BME280;39398;48.382;9.802;2023-03-25T01:46:11;93241.78;;;6.40;100.00
53522;BME280;39398;48.382;9.802;2023-03-25T01:51:17;93254.09;;;6.25;100.00
53522;BME280;39398;48.382;9.802;2023-03-25T01:56:23;93264.78;;;6.38;100.00
53522;BME280;39398;48.382;9.802;2023-03-25T02:01:26;93250.38;;;6.34;100.00
53522;BME280;39398;48.382;9.802;2023-03-25T02:06:33;93232.31;;;6.24;100.00
53522;BME280;39398;48.382;9.802;2023-03-25T02:11:36;93220.41;;;6.07;100.00
53522;BME280;39398;48.382;9.802;2023-03-25T02:16:44;93217.88;;;6.14;100.00
53522;BME280;39398;48.382;9.802;2023-03-25T02:22:12;93225.97;;;6.19;100.00
53522;BME280;39398;48.382;9.802;2023-03-25T02:27:26;93218.03;;;6.27;100.00
53522;BME280;39398;48.382;9.802;2023-03-25T02:32:46;93213.81;;;6.26;100.00
53522;BME280;39398;48.382;9.802;2023-03-25T02:38:16;93221.09;;;6.16;100.00
53522;BME280;39398;48.382;9.802;2023-03-25T02:43:23;93260.25;;;6.17;100.00
53522;BME280;39398;48.382;9.802;2023-03-25T02:48:31;93267.59;;;5.69;100.00
53522;BME280;39398;48.382;9.802;2023-03-25T02:53:36;93251.13;;;5.46;100.00
53522;BME280;39398;48.382;9.802;2023-03-25T02:58:40;93245.53;;;5.49;100.00
53522;BME280;39398;48.382;9.802;2023-03-25T03:03:42;93237.06;;;5.62;100.00
53522;BME280;39398;48.382;9.802;2023-03-25T03:09:00;93216.03;;;5.85;100.00
53522;BME280;39398;48.382;9.802;2023-03-25T03:14:15;93206.19;;;5.87;100.00
53522;BME280;39398;48.382;9.802;2023-03-25T03:19:31;93207.44;;;5.76;100.00
53522;BME280;39398;48.382;9.802;2023-03-25T03:24:39;93205.91;;;5.81;100.00
53522;BME280;39398;48.382;9.802;2023-03-25T03:29:45;93212.56;;;5.54;100.00
53522;BME280;39398;48.382;9.802;2023-03-25T03:34:50;93207.88;;;5.50;100.00
53522;BME280;39398;48.382;9.802;2023-03-25T03:39:56;93234.41;;;5.47;100.00
53522;BME280;39398;48.382;9.802;2023-03-25T03:45:00;93270.88;;;5.25;100.00
53522;BME280;39398;48.382;9.802;2023-03-25T03:50:05;93273.16;;;4.82;100.00
53522;BME280;39398;48.382;9.802;2023-03-25T03:55:13;93267.16;;;4.65;100.00
53522;BME280;39398;48.382;9.802;2023-03-25T04:00:17;93270.34;;;4.84;100.00
53522;BME280;39398;48.382;9.802;2023-03-25T04:05:23;93256.06;;;5.18;100.00
53522;BME280;39398;48.382;9.802;2023-03-25T04:10:31;93245.00;;;5.30;100.00
53522;BME280;39398;48.382;9.802;2023-03-25T04:15:34;93254.47;;;5.31;100.00
53522;BME280;39398;48.382;9.802;2023-03-25T04:20:36;93239.63;;;5.47;100.00
53522;BME280;39398;48.382;9.802;2023-03-25T04:25:39;93244.47;;;5.35;100.00
53522;BME280;39398;48.382;9.802;2023-03-25T04:30:41;93247.13;;;5.50;100.00
53522;BME280;39398;48.382;9.802;2023-03-25T04:35:42;93247.06;;;5.58;100.00
53522;BME280;39398;48.382;9.802;2023-03-25T04:40:45;93255.56;;;5.60;100.00
53522;BME280;39398;48.382;9.802;2023-03-25T04:45:47;93258.63;;;5.49;100.00
53522;BME280;39398;48.382;9.802;2023-03-25T04:50:49;93264.47;;;5.51;100.00
53522;BME280;39398;48.382;9.802;2023-03-25T04:55:53;93254.84;;;5.28;100.00
53522;BME280;39398;48.382;9.802;2023-03-25T05:00:54;93248.44;;;5.31;100.00
53522;BME280;39398;48.382;9.802;2023-03-25T05:05:56;93249.34;;;5.23;100.00
53522;BME280;39398;48.382;9.802;2023-03-25T05:10:59;93264.09;;;5.16;100.00
53522;BME280;39398;48.382;9.802;2023-03-25T05:16:00;93279.53;;;5.03;100.00
53522;BME280;39398;48.382;9.802;2023-03-25T05:21:02;93289.00;;;5.04;100.00
53522;BME280;39398;48.382;9.802;2023-03-25T05:26:06;93287.81;;;5.15;100.00
53522;BME280;39398;48.382;9.802;2023-03-25T05:31:07;93289.28;;;5.17;100.00
53522;BME280;39398;48.382;9.802;2023-03-25T05:36:10;93290.94;;;5.10;100.00
53522;BME280;39398;48.382;9.802;2023-03-25T05:41:14;93294.31;;;4.96;100.00
53522;BME280;39398;48.382;9.802;2023-03-25T05:46:16;93295.66;;;4.92;100.00
53522;BME280;39398;48.382;9.802;2023-03-25T05:51:19;93285.34;;;4.90;100.00
53522;BME280;39398;48.382;9.802;2023-03-25T05:56:22;93281.63;;;4.84;100.00
53522;BME280;39398;48.382;9.802;2023-03-25T06:01:24;93305.16;;;4.84;100.00
53522;BME280;39398;48.382;9.802;2023-03-25T06:06:34;93308.28;;;4.80;100.00
53522;BME280;39398;48.382;9.802;2023-03-25T06:11:37;93308.31;;;5.03;100.00
53522;BME280;39398;48.382;9.802;2023-03-25T06:16:39;93295.78;;;5.44;100.00
53522;BME280;39398;48.382;9.802;2023-03-25T06:21:41;93306.66;;;5.56;100.00
53522;BME280;39398;48.382;9.802;2023-03-25T06:26:43;93300.00;;;5.45;100.00
53522;BME280;39398;48.382;9.802;2023-03-25T06:31:45;93295.31;;;5.18;100.00
53522;BME280;39398;48.382;9.802;2023-03-25T06:36:46;93317.03;;;4.95;100.00
53522;BME280;39398;48.382;9.802;2023-03-25T06:41:49;93321.91;;;5.52;100.00
53522;BME280;39398;48.382;9.802;2023-03-25T06:46:51;93318.81;;;5.49;100.00
53522;BME280;39398;48.382;9.802;2023-03-25T06:51:53;93337.59;;;5.29;100.00
53522;BME280;39398;48.382;9.802;2023-03-25T06:56:55;93342.56;;;5.16;100.00
53522;BME280;39398;48.382;9.802;2023-03-25T07:01:57;93349.31;;;5.10;100.00
53522;BME280;39398;48.382;9.802;2023-03-25T07:06:59;93355.88;;;5.06;100.00
53522;BME280;39398;48.382;9.802;2023-03-25T07:12:01;93363.25;;;5.03;100.00
53522;BME280;39398;48.382;9.802;2023-03-25T07:17:03;93355.59;;;5.55;100.00
53522;BME280;39398;48.382;9.802;2023-03-25T07:22:05;93353.13;;;5.54;100.00
53522;BME280;39398;48.382;9.802;2023-03-25T07:27:09;93348.47;;;5.41;100.00
53522;BME280;39398;48.382;9.802;2023-03-25T07:32:10;93338.22;;;5.31;100.00
53522;BME280;39398;48.382;9.802;2023-03-25T07:37:12;93325.69;;;5.27;100.00
53522;BME280;39398;48.382;9.802;2023-03-25T07:42:15;93338.44;;;5.30;100.00
53522;BME280;39398;48.382;9.802;2023-03-25T07:47:17;93336.78;;;5.29;100.00
53522;BME280;39398;48.382;9.802;2023-03-25T07:52:18;93333.75;;;5.40;100.00
53522;BME280;39398;48.382;9.802;2023-03-25T07:57:21;93348.66;;;5.63;100.00
53522;BME280;39398;48.382;9.802;2023-03-25T08:02:23;93340.91;;;5.69;100.00
53522;BME280;39398;48.382;9.802;2023-03-25T08:07:24;93338.97;;;6.24;100.00
53522;BME280;39398;48.382;9.802;2023-03-25T08:12:27;93337.06;;;6.47;100.00
53522;BME280;39398;48.382;9.802;2023-03-25T08:17:29;93329.56;;;6.59;100.00
53522;BME280;39398;48.382;9.802;2023-03-25T08:22:30;93321.34;;;6.47;100.00
53522;BME280;39398;48.382;9.802;2023-03-25T08:27:33;93333.09;;;6.37;100.00
53522;BME280;39398;48.382;9.802;2023-03-25T08:32:35;93331.88;;;5.95;100.00
53522;BME280;39398;48.382;9.802;2023-03-25T08:37:37;93328.41;;;6.17;100.00
53522;BME280;39398;48.382;9.802;2023-03-25T08:42:40;93329.50;;;6.67;100.00
53522;BME280;39398;48.382;9.802;2023-03-25T08:47:42;93311.59;;;6.56;100.00
53522;BME280;39398;48.382;9.802;2023-03-25T08:52:44;93310.84;;;6.62;100.00
53522;BME280;39398;48.382;9.802;2023-03-25T08:57:47;93300.72;;;6.74;100.00
53522;BME280;39398;48.382;9.802;2023-03-25T09:02:48;93294.47;;;6.75;100.00
53522;BME280;39398;48.382;9.802;2023-03-25T09:07:50;93296.44;;;6.73;100.00
53522;BME280;39398;48.382;9.802;2023-03-25T09:12:53;93281.84;;;6.64;100.00
53522;BME280;39398;48.382;9.802;2023-03-25T09:17:54;93280.75;;;6.58;100.00
53522;BME280;39398;48.382;9.802;2023-03-25T09:22:56;93278.94;;;6.95;100.00
53522;BME280;39398;48.382;9.802;2023-03-25T09:27:59;93273.22;;;7.49;100.00
53522;BME280;39398;48.382;9.802;2023-03-25T09:33:01;93273.41;;;7.97;100.00
53522;BME280;39398;48.382;9.802;2023-03-25T09:38:02;93273.75;;;8.44;100.00
53522;BME280;39398;48.382;9.802;2023-03-25T09:43:20;93265.91;;;8.22;100.00
53522;BME280;39398;48.382;9.802;2023-03-25T09:48:29;93279.69;;;8.24;100.00
53522;BME280;39398;48.382;9.802;2023-03-25T09:53:34;93278.22;;;8.43;100.00
53522;BME280;39398;48.382;9.802;2023-03-25T09:58:42;93267.47;;;8.16;100.00
53522;BME280;39398;48.382;9.802;2023-03-25T10:03:57;93272.81;;;8.23;100.00
53522;BME280;39398;48.382;9.802;2023-03-25T10:09:14;93256.63;;;8.26;100.00
53522;BME280;39398;48.382;9.802;2023-03-25T10:14:26;93244.91;;;8.29;100.00
53522;BME280;39398;48.382;9.802;2023-03-25T10:19:46;93273.97;;;7.43;100.00
53522;BME280;39398;48.382;9.802;2023-03-25T10:24:55;93256.72;;;7.34;100.00
53522;BME280;39398;48.382;9.802;2023-03-25T10:30:03;93258.53;;;7.55;100.00
53522;BME280;39398;48.382;9.802;2023-03-25T10:35:10;93276.03;;;7.97;100.00
53522;BME280;39398;48.382;9.802;2023-03-25T10:40:16;93261.41;;;8.44;100.00
53522;BME280;39398;48.382;9.802;2023-03-25T10:45:24;93275.25;;;8.31;100.00
53522;BME280;39398;48.382;9.802;2023-03-25T10:50:26;93273.44;;;8.32;100.00
53522;BME280;39398;48.382;9.802;2023-03-25T10:55:32;93262.84;;;8.19;100.00
53522;BME280;39398;48.382;9.802;2023-03-25T11:00:37;93281.41;;;8.38;100.00
53522;BME280;39398;48.382;9.802;2023-03-25T11:05:38;93271.28;;;8.83;100.00
53522;BME280;39398;48.382;9.802;2023-03-25T11:10:40;93270.34;;;8.50;100.00
53522;BME280;39398;48.382;9.802;2023-03-25T11:15:51;93266.00;;;8.77;100.00
53522;BME280;39398;48.382;9.802;2023-03-25T11:20:56;93259.31;;;9.49;100.00
53522;BME280;39398;48.382;9.802;2023-03-25T11:26:04;93247.13;;;9.35;100.00
53522;BME280;39398;48.382;9.802;2023-03-25T11:31:16;93256.84;;;9.34;100.00
53522;BME280;39398;48.382;9.802;2023-03-25T11:36:25;93249.00;;;9.61;99.36
53522;BME280;39398;48.382;9.802;2023-03-25T11:41:29;93269.56;;;9.04;99.39
53522;BME280;39398;48.382;9.802;2023-03-25T11:46:33;93261.81;;;8.89;100.00
53522;BME280;39398;48.382;9.802;2023-03-25T11:51:41;93241.47;;;9.44;95.77
53522;BME280;39398;48.382;9.802;2023-03-25T11:56:43;93236.00;;;9.46;94.36
53522;BME280;39398;48.382;9.802;2023-03-25T12:01:51;93225.06;;;9.82;90.84
53522;BME280;39398;48.382;9.802;2023-03-25T12:06:55;93218.38;;;9.60;86.97
53522;BME280;39398;48.382;9.802;2023-03-25T12:12:06;93215.94;;;9.71;90.03
53522;BME280;39398;48.382;9.802;2023-03-25T12:17:19;93224.66;;;9.78;79.11
53522;BME280;39398;48.382;9.802;2023-03-25T12:22:35;93217.53;;;9.13;79.35
53522;BME280;39398;48.382;9.802;2023-03-25T12:27:43;93228.09;;;9.72;79.12
53522;BME280;39398;48.382;9.802;2023-03-25T12:32:57;93221.00;;;9.66;73.09
53522;BME280;39398;48.382;9.802;2023-03-25T12:38:19;93222.56;;;10.20;73.06
53522;BME280;39398;48.382;9.802;2023-03-25T12:43:29;93223.16;;;10.42;65.38
53522;BME280;39398;48.382;9.802;2023-03-25T12:48:50;93227.09;;;9.93;70.70
53522;BME280;39398;48.382;9.802;2023-03-25T12:54:04;93216.34;;;9.42;66.48
53522;BME280;39398;48.382;9.802;2023-03-25T13:04:53;93226.09;;;9.68;67.36
53522;BME280;39398;48.382;9.802;2023-03-25T13:10:04;93231.16;;;9.63;72.38
53522;BME280;39398;48.382;9.802;2023-03-25T13:15:14;93255.88;;;9.75;71.18
53522;BME280;39398;48.382;9.802;2023-03-25T13:20:30;93275.25;;;9.07;85.74
53522;BME280;39398;48.382;9.802;2023-03-25T13:25:41;93250.31;;;9.03;91.92
53522;BME280;39398;48.382;9.802;2023-03-25T13:30:46;93254.34;;;8.99;87.89
53522;BME280;39398;48.382;9.802;2023-03-25T13:35:52;93247.31;;;9.13;86.75
53522;BME280;39398;48.382;9.802;2023-03-25T13:41:06;93242.97;;;8.92;84.86
53522;BME280;39398;48.382;9.802;2023-03-25T13:46:11;93220.00;;;9.47;nan
53522;BME280;39398;48.382;9.802;2023-03-25T13:51:15;93223.25;;;9.63;80.21
53522;BME280;39398;48.382;9.802;2023-03-25T14:02:11;93230.16;;;9.77;77.20
53522;BME280;39398;48.382;9.802;2023-03-25T14:12:52;93240.47;;;9.85;79.10
53522;BME280;39398;48.382;9.802;2023-03-25T14:17:56;93239.03;;;9.29;87.88
53522;BME280;39398;48.382;9.802;2023-03-25T14:23:02;93244.25;;;9.10;86.36
53522;BME280;39398;48.382;9.802;2023-03-25T14:28:05;93222.59;;;9.27;78.26
53522;BME280;39398;48.382;9.802;2023-03-25T14:33:08;93232.34;;;9.60;76.73
53522;BME280;39398;48.382;9.802;2023-03-25T14:38:20;93225.88;;;9.29;69.35
53522;BME280;39398;48.382;9.802;2023-03-25T14:43:23;93244.53;;;9.74;74.33
53522;BME280;39398;48.382;9.802;2023-03-25T14:48:30;93247.16;;;9.88;67.12
53522;BME280;39398;48.382;9.802;2023-03-25T14:53:34;93228.28;;;10.11;63.47
53522;BME280;39398;48.382;9.802;2023-03-25T14:58:36;93237.03;;;9.78;61.57
53522;BME280;39398;48.382;9.802;2023-03-25T15:03:40;93254.84;;;9.29;74.11
53522;BME280;39398;48.382;9.802;2023-03-25T15:08:50;93284.97;;;8.59;88.82
53522;BME280;39398;48.382;9.802;2023-03-25T15:13:56;93277.13;;;8.72;87.46
53522;BME280;39398;48.382;9.802;2023-03-25T15:19:04;93273.78;;;8.98;87.04
53522;BME280;39398;48.382;9.802;2023-03-25T15:24:08;93268.56;;;8.57;79.72
53522;BME280;39398;48.382;9.802;2023-03-25T15:29:38;93259.13;;;8.76;78.68
53522;BME280;39398;48.382;9.802;2023-03-25T15:34:56;93252.94;;;8.97;80.72
53522;BME280;39398;48.382;9.802;2023-03-25T15:40:07;93253.75;;;8.97;74.58
53522;BME280;39398;48.382;9.802;2023-03-25T15:45:24;93244.09;;;9.38;74.31
53522;BME280;39398;48.382;9.802;2023-03-25T15:50:43;93248.56;;;9.57;72.97
53522;BME280;39398;48.382;9.802;2023-03-25T15:55:55;93263.56;;;9.37;75.32
53522;BME280;39398;48.382;9.802;2023-03-25T16:01:05;93251.72;;;9.06;71.39
53522;BME280;39398;48.382;9.802;2023-03-25T16:06:14;93262.84;;;9.01;72.82
53522;BME280;39398;48.382;9.802;2023-03-25T16:11:24;93255.97;;;9.00;70.92
53522;BME280;39398;48.382;9.802;2023-03-25T16:16:27;93269.50;;;8.84;71.46
53522;BME280;39398;48.382;9.802;2023-03-25T16:21:30;93296.25;;;8.25;82.56
53522;BME280;39398;48.382;9.802;2023-03-25T16:26:36;93347.13;;;6.73;100.00
53522;BME280;39398;48.382;9.802;2023-03-25T16:31:37;93355.25;;;6.79;100.00
53522;BME280;39398;48.382;9.802;2023-03-25T16:36:41;93332.94;;;7.19;100.00
53522;BME280;39398;48.382;9.802;2023-03-25T16:41:45;93325.75;;;6.91;100.00
53522;BME280;39398;48.382;9.802;2023-03-25T16:46:49;93311.09;;;6.97;100.00
53522;BME280;39398;48.382;9.802;2023-03-25T16:51:52;93312.81;;;6.90;100.00
53522;BME280;39398;48.382;9.802;2023-03-25T16:56:56;93306.34;;;7.07;100.00
53522;BME280;39398;48.382;9.802;2023-03-25T17:02:00;93297.97;;;6.97;100.00
53522;BME280;39398;48.382;9.802;2023-03-25T17:07:04;93292.63;;;6.90;100.00
53522;BME280;39398;48.382;9.802;2023-03-25T17:12:13;93294.94;;;7.15;100.00
53522;BME280;39398;48.382;9.802;2023-03-25T17:17:30;93301.09;;;7.07;100.00
53522;BME280;39398;48.382;9.802;2023-03-25T17:22:36;93305.88;;;7.18;100.00
53522;BME280;39398;48.382;9.802;2023-03-25T17:27:39;93306.81;;;7.32;100.00
53522;BME280;39398;48.382;9.802;2023-03-25T17:32:44;93303.78;;;7.50;100.00
53522;BME280;39398;48.382;9.802;2023-03-25T17:37:47;93318.25;;;7.25;100.00
53522;BME280;39398;48.382;9.802;2023-03-25T17:42:51;93316.97;;;7.57;100.00
53522;BME280;39398;48.382;9.802;2023-03-25T17:47:52;93316.91;;;7.50;100.00
53522;BME280;39398;48.382;9.802;2023-03-25T17:52:54;93332.88;;;7.34;100.00
53522;BME280;39398;48.382;9.802;2023-03-25T17:57:57;93336.09;;;7.51;100.00
53522;BME280;39398;48.382;9.802;2023-03-25T18:02:59;93321.78;;;7.53;100.00
53522;BME280;39398;48.382;9.802;2023-03-25T18:08:00;93321.53;;;7.48;100.00
53522;BME280;39398;48.382;9.802;2023-03-25T18:13:03;93312.78;;;7.41;100.00
53522;BME280;39398;48.382;9.802;2023-03-25T18:18:06;93305.19;;;7.31;97.47
53522;BME280;39398;48.382;9.802;2023-03-25T18:23:07;93314.06;;;7.52;95.70
53522;BME280;39398;48.382;9.802;2023-03-25T18:28:11;93329.06;;;7.36;96.90
53522;BME280;39398;48.382;9.802;2023-03-25T18:33:13;93335.25;;;7.29;97.85
53522;BME280;39398;48.382;9.802;2023-03-25T18:38:17;93338.59;;;7.37;96.53
53522;BME280;39398;48.382;9.802;2023-03-25T18:43:20;93345.84;;;7.35;99.63
53522;BME280;39398;48.382;9.802;2023-03-25T18:48:22;93344.66;;;7.38;100.00
53522;BME280;39398;48.382;9.802;2023-03-25T18:53:25;93352.25;;;7.33;100.00
53522;BME280;39398;48.382;9.802;2023-03-25T18:58:30;93368.75;;;7.27;100.00
53522;BME280;39398;48.382;9.802;2023-03-25T19:03:32;93369.03;;;7.32;100.00
53522;BME280;39398;48.382;9.802;2023-03-25T19:08:34;93380.44;;;7.24;100.00
53522;BME280;39398;48.382;9.802;2023-03-25T19:13:37;93383.22;;;7.37;100.00
53522;BME280;39398;48.382;9.802;2023-03-25T19:18:38;93395.84;;;7.12;100.00
53522;BME280;39398;48.382;9.802;2023-03-25T19:23:40;93406.81;;;7.01;100.00
53522;BME280;39398;48.382;9.802;2023-03-25T19:28:43;93411.34;;;7.07;100.00
53522;BME280;39398;48.382;9.802;2023-03-25T19:33:44;93412.88;;;7.02;98.63
53522;BME280;39398;48.382;9.802;2023-03-25T19:38:46;93407.38;;;6.67;99.69
53522;BME280;39398;48.382;9.802;2023-03-25T19:43:49;93402.31;;;6.80;99.81
53522;BME280;39398;48.382;9.802;2023-03-25T19:48:51;93392.72;;;7.02;98.37
53522;BME280;39398;48.382;9.802;2023-03-25T19:53:52;93398.22;;;6.63;99.29
53522;BME280;39398;48.382;9.802;2023-03-25T19:58:55;93396.31;;;7.16;97.40
53522;BME280;39398;48.382;9.802;2023-03-25T20:03:57;93395.19;;;7.25;97.45
53522;BME280;39398;48.382;9.802;2023-03-25T20:08:59;93389.31;;;7.08;98.22
53522;BME280;39398;48.382;9.802;2023-03-25T20:14:01;93392.88;;;7.15;98.07
53522;BME280;39398;48.382;9.802;2023-03-25T20:19:03;93396.22;;;7.09;99.97
53522;BME280;39398;48.382;9.802;2023-03-25T20:24:05;93389.53;;;6.92;100.00
53522;BME280;39398;48.382;9.802;2023-03-25T20:29:08;93387.75;;;6.92;100.00
53522;BME280;39398;48.382;9.802;2023-03-25T20:34:10;93380.22;;;6.89;100.00
53522;BME280;39398;48.382;9.802;2023-03-25T20:39:11;93374.50;;;6.86;100.00
53522;BME280;39398;48.382;9.802;2023-03-25T20:44:14;93370.09;;;6.86;99.33
53522;BME280;39398;48.382;9.802;2023-03-25T20:49:16;93366.47;;;6.72;100.00
53522;BME280;39398;48.382;9.802;2023-03-25T20:54:18;93366.56;;;6.64;100.00
53522;BME280;39398;48.382;9.802;2023-03-25T20:59:21;93351.81;;;6.63;100.00
53522;BME280;39398;48.382;9.802;2023-03-25T21:04:23;93351.28;;;6.53;100.00
53522;BME280;39398;48.382;9.802;2023-03-25T21:09:24;93354.97;;;6.44;100.00
53522;BME280;39398;48.382;9.802;2023-03-25T21:14:28;93364.84;;;6.57;100.00
53522;BME280;39398;48.382;9.802;2023-03-25T21:19:30;93375.69;;;6.53;100.00
53522;BME280;39398;48.382;9.802;2023-03-25T21:24:31;93383.66;;;6.45;100.00
53522;BME280;39398;48.382;9.802;2023-03-25T21:29:34;93387.44;;;6.43;100.00
53522;BME280;39398;48.382;9.802;2023-03-25T21:34:36;93378.66;;;6.50;100.00
53522;BME280;39398;48.382;9.802;2023-03-25T21:39:37;93364.19;;;6.25;100.00
53522;BME280;39398;48.382;9.802;2023-03-25T21:44:40;93363.81;;;6.28;100.00
53522;BME280;39398;48.382;9.802;2023-03-25T21:49:42;93365.63;;;6.27;100.00
53522;BME280;39398;48.382;9.802;2023-03-25T21:54:43;93354.44;;;6.34;100.00
53522;BME280;39398;48.382;9.802;2023-03-25T21:59:46;93361.78;;;6.38;100.00
53522;BME280;39398;48.382;9.802;2023-03-25T22:04:48;93354.53;;;6.40;100.00
53522;BME280;39398;48.382;9.802;2023-03-25T22:09:49;93368.25;;;6.27;100.00
53522;BME280;39398;48.382;9.802;2023-03-25T22:14:52;93397.84;;;5.98;100.00
53522;BME280;39398;48.382;9.802;2023-03-25T22:19:54;93394.91;;;5.93;100.00
53522;BME280;39398;48.382;9.802;2023-03-25T22:24:55;93339.66;;;6.03;100.00
53522;BME280;39398;48.382;9.802;2023-03-25T22:29:58;93341.22;;;6.12;100.00
53522;BME280;39398;48.382;9.802;2023-03-25T22:35:00;93346.44;;;5.97;100.00
53522;BME280;39398;48.382;9.802;2023-03-25T22:40:01;93348.72;;;6.15;100.00
53522;BME280;39398;48.382;9.802;2023-03-25T22:45:06;93340.84;;;6.15;100.00
53522;BME280;39398;48.382;9.802;2023-03-25T22:50:08;93339.78;;;5.87;100.00
53522;BME280;39398;48.382;9.802;2023-03-25T22:55:10;93336.41;;;6.01;100.00
53522;BME280;39398;48.382;9.802;2023-03-25T23:00:14;93355.78;;;5.92;100.00
53522;BME280;39398;48.382;9.802;2023-03-25T23:05:16;93352.16;;;5.78;100.00
53522;BME280;39398;48.382;9.802;2023-03-25T23:10:17;93348.47;;;5.64;100.00
53522;BME280;39398;48.382;9.802;2023-03-25T23:15:20;93341.81;;;5.76;100.00
53522;BME280;39398;48.382;9.802;2023-03-25T23:20:22;93350.16;;;5.80;100.00
53522;BME280;39398;48.382;9.802;2023-03-25T23:25:23;93345.16;;;5.70;100.00
53522;BME280;39398;48.382;9.802;2023-03-25T23:30:26;93332.88;;;5.94;100.00
53522;BME280;39398;48.382;9.802;2023-03-25T23:35:28;93345.47;;;5.90;100.00
53522;BME280;39398;48.382;9.802;2023-03-25T23:40:30;93344.72;;;6.04;100.00
53522;BME280;39398;48.382;9.802;2023-03-25T23:45:34;93356.59;;;5.92;100.00
53522;BME280;39398;48.382;9.802;2023-03-25T23:50:35;93343.88;;;5.66;100.00
53522;BME280;39398;48.382;9.802;2023-03-25T23:55:37;93343.81;;;5.51;100.00
